createdAt,value
2018-04-01T00:01:33.343Z,60.63
2018-04-01T00:04:00.788Z,59.77
2018-04-01T00:06:28.550Z,60.26
2018-04-01T00:08:56.000Z,60.95
2018-04-01T00:11:23.444Z,60.91
2018-04-01T00:13:50.906Z,60.65
2018-04-01T00:16:18.350Z,60.03
2018-04-01T00:18:45.794Z,60.34
2018-04-01T00:21:16.992Z,60.20
2018-04-01T00:23:44.444Z,60.48
2018-04-01T00:26:11.891Z,60.10
2018-04-01T00:28:39.343Z,60.08
2018-04-01T00:31:06.796Z,59.87
2018-04-01T00:33:34.252Z,60.11
2018-04-01T00:36:01.718Z,59.36
2018-04-01T00:38:29.161Z,59.85
2018-04-01T00:40:56.619Z,60.23
2018-04-01T00:43:24.069Z,60.42
2018-04-01T00:45:51.522Z,59.87
2018-04-01T00:48:18.976Z,60.71
2018-04-01T00:50:46.434Z,61.54
2018-04-01T00:53:13.883Z,61.12
2018-04-01T00:55:41.336Z,60.47
2018-04-01T00:58:08.784Z,61.43
2018-04-01T01:00:36.243Z,61.06
2018-04-01T01:03:03.687Z,60.90
2018-04-01T01:05:31.147Z,61.75
2018-04-01T01:07:58.591Z,60.97
2018-04-01T01:10:26.036Z,62.20
2018-04-01T01:12:53.492Z,61.34
2018-04-01T01:15:20.948Z,62.13
2018-04-01T01:17:48.396Z,61.74
2018-04-01T01:20:15.840Z,62.09
2018-04-01T01:22:43.408Z,61.78
2018-04-01T01:25:10.815Z,62.49
2018-04-01T01:27:38.268Z,62.94
2018-04-01T01:30:05.709Z,64.14
2018-04-01T01:32:33.159Z,63.53
2018-04-01T01:35:00.604Z,63.29
2018-04-01T01:37:28.046Z,63.38
2018-04-01T01:39:55.499Z,64.43
2018-04-01T01:42:22.944Z,64.32
2018-04-01T01:44:50.397Z,63.52
2018-04-01T01:47:17.847Z,63.24
2018-04-01T01:49:45.297Z,63.30
2018-04-01T01:52:12.747Z,62.60
2018-04-01T01:54:40.195Z,63.86
2018-04-01T01:57:07.640Z,63.57
2018-04-01T01:59:35.112Z,63.34
2018-04-01T02:02:02.551Z,62.87
2018-04-01T02:04:30.016Z,62.80
2018-04-01T02:06:57.463Z,63.57
2018-04-01T02:09:24.904Z,63.56
2018-04-01T02:11:52.355Z,62.97
2018-04-01T02:14:19.796Z,62.93
2018-04-01T02:16:47.260Z,63.33
2018-04-01T02:19:14.692Z,63.40
2018-04-01T02:21:42.247Z,63.25
2018-04-01T02:24:09.691Z,63.12
2018-04-01T02:26:37.143Z,62.82
2018-04-01T02:29:04.592Z,63.32
2018-04-01T02:31:32.137Z,63.17
2018-04-01T02:33:59.503Z,63.64
2018-04-01T02:36:26.975Z,64.04
2018-04-01T02:38:54.416Z,63.33
2018-04-01T02:41:21.856Z,63.90
2018-04-01T02:43:49.305Z,64.54
2018-04-01T02:46:16.765Z,64.43
2018-04-01T02:48:44.198Z,64.26
2018-04-01T02:51:11.644Z,63.13
2018-04-01T02:53:39.097Z,63.05
2018-04-01T02:56:06.543Z,63.48
2018-04-01T02:58:33.996Z,62.99
2018-04-01T03:01:01.444Z,62.90
2018-04-01T03:03:28.908Z,63.30
2018-04-01T03:05:56.343Z,62.58
2018-04-01T03:08:23.825Z,62.75
2018-04-01T03:10:51.256Z,63.41
2018-04-01T03:13:18.700Z,62.98
2018-04-01T03:15:46.165Z,63.21
2018-04-01T03:18:13.623Z,62.52
2018-04-01T03:20:41.078Z,62.40
2018-04-01T03:23:08.528Z,62.19
2018-04-01T03:25:35.984Z,62.30
2018-04-01T03:28:03.424Z,62.12
2018-04-01T03:30:30.876Z,63.04
2018-04-01T03:32:58.320Z,62.45
2018-04-01T03:35:25.773Z,62.69
2018-04-01T03:37:53.212Z,62.56
2018-04-01T03:40:20.647Z,62.88
2018-04-01T03:42:48.107Z,62.62
2018-04-01T03:45:15.573Z,63.09
2018-04-01T03:47:43.025Z,63.05
2018-04-01T03:50:10.464Z,62.52
2018-04-01T03:52:37.921Z,62.76
2018-04-01T03:55:05.359Z,62.32
2018-04-01T03:57:32.819Z,62.01
2018-04-01T04:00:00.268Z,62.58
2018-04-01T04:02:27.712Z,62.61
2018-04-01T04:04:55.157Z,62.15
2018-04-01T04:07:22.612Z,61.86
2018-04-01T04:09:50.055Z,61.65
2018-04-01T04:12:17.500Z,62.25
2018-04-01T04:14:44.947Z,62.45
2018-04-01T04:17:12.391Z,63.42
2018-04-01T04:19:39.847Z,64.11
2018-04-01T04:22:07.291Z,63.79
2018-04-01T04:24:34.747Z,63.20
2018-04-01T04:27:02.191Z,63.09
2018-04-01T04:29:31.631Z,62.89
2018-04-01T04:31:59.085Z,62.36
2018-04-01T04:34:26.531Z,63.37
2018-04-01T04:36:53.968Z,62.23
2018-04-01T04:39:21.429Z,62.67
2018-04-01T04:41:48.876Z,63.10
2018-04-01T04:44:16.319Z,62.88
2018-04-01T04:46:43.790Z,63.55
2018-04-01T04:49:11.211Z,63.65
2018-04-01T04:51:38.660Z,62.33
2018-04-01T04:54:06.099Z,61.85
2018-04-01T04:56:33.545Z,61.98
2018-04-01T04:59:01.004Z,62.24
2018-04-01T05:01:28.459Z,62.68
2018-04-01T05:03:55.907Z,61.29
2018-04-01T05:06:23.359Z,60.96
2018-04-01T05:08:50.804Z,60.76
2018-04-01T05:11:18.255Z,60.40
2018-04-01T05:13:45.704Z,60.12
2018-04-01T05:16:13.140Z,60.11
2018-04-01T05:18:40.595Z,60.91
2018-04-01T05:21:08.035Z,60.05
2018-04-01T05:23:35.491Z,60.74
2018-04-01T05:26:02.930Z,59.80
2018-04-01T05:28:30.393Z,60.93
2018-04-01T05:30:57.823Z,61.90
2018-04-01T05:33:25.288Z,60.93
2018-04-01T05:35:52.720Z,61.67
2018-04-01T05:38:20.164Z,61.50
2018-04-01T05:40:47.631Z,61.32
2018-04-01T05:43:15.076Z,61.43
2018-04-01T05:45:42.531Z,60.98
2018-04-01T05:48:09.993Z,61.76
2018-04-01T05:50:37.435Z,60.57
2018-04-01T05:53:04.894Z,60.65
2018-04-01T05:55:32.339Z,59.93
2018-04-01T05:57:59.787Z,59.64
2018-04-01T06:00:27.244Z,59.98
2018-04-01T06:02:54.687Z,60.01
2018-04-01T06:05:22.128Z,59.99
2018-04-01T06:07:49.577Z,59.39
2018-04-01T06:10:17.019Z,59.50
2018-04-01T06:12:44.477Z,59.72
2018-04-01T06:15:11.920Z,58.75
2018-04-01T06:17:39.375Z,59.79
2018-04-01T06:20:06.828Z,59.68
2018-04-01T06:22:34.285Z,59.12
2018-04-01T06:25:01.731Z,58.16
2018-04-01T06:27:29.187Z,58.39
2018-04-01T06:29:56.635Z,58.05
2018-04-01T06:32:24.099Z,57.88
2018-04-01T06:34:51.549Z,57.17
2018-04-01T06:37:19.013Z,57.04
2018-04-01T06:39:46.463Z,56.56
2018-04-01T06:42:13.923Z,55.68
2018-04-01T06:44:41.371Z,56.47
2018-04-01T06:47:08.829Z,55.73
2018-04-01T06:49:36.292Z,56.38
2018-04-01T06:52:03.740Z,56.87
2018-04-01T06:54:31.201Z,56.11
2018-04-01T06:56:58.683Z,57.62
2018-04-01T06:59:26.131Z,57.13
2018-04-01T07:01:53.575Z,57.84
2018-04-01T07:04:21.036Z,56.91
2018-04-01T07:06:48.478Z,56.46
2018-04-01T07:09:15.939Z,56.50
2018-04-01T07:11:43.391Z,56.81
2018-04-01T07:14:10.847Z,57.96
2018-04-01T07:16:38.303Z,57.75
2018-04-01T07:19:05.776Z,69.86
2018-04-01T07:21:33.223Z,70.11
2018-04-01T07:24:00.680Z,61.95
2018-04-01T07:26:28.143Z,61.91
2018-04-01T07:28:55.603Z,55.16
2018-04-01T07:31:23.061Z,56.20
2018-04-01T07:33:50.512Z,56.71
2018-04-01T07:36:18.022Z,49.80
2018-04-01T07:38:45.429Z,51.11
2018-04-01T07:41:12.928Z,53.06
2018-04-01T07:43:40.371Z,48.42
2018-04-01T07:46:07.826Z,52.84
2018-04-01T07:48:35.278Z,47.83
2018-04-01T07:51:02.730Z,50.92
2018-04-01T07:53:30.189Z,50.55
2018-04-01T07:55:57.658Z,60.34
2018-04-01T07:58:25.114Z,61.54
2018-04-01T08:00:52.562Z,62.89
2018-04-01T08:03:20.016Z,63.80
2018-04-01T08:05:47.472Z,63.90
2018-04-01T08:08:14.923Z,64.86
2018-04-01T08:10:42.372Z,66.08
2018-04-01T08:13:09.847Z,66.78
2018-04-01T08:15:37.288Z,65.97
2018-04-01T08:18:04.769Z,66.70
2018-04-01T08:20:32.212Z,66.47
2018-04-01T08:22:59.656Z,66.86
2018-04-01T08:25:27.143Z,66.80
2018-04-01T08:27:54.575Z,66.79
2018-04-01T08:30:22.036Z,66.74
2018-04-01T08:32:49.488Z,66.17
2018-04-01T08:35:16.946Z,64.94
2018-04-01T08:37:44.389Z,66.25
2018-04-01T08:40:11.859Z,64.80
2018-04-01T08:42:39.313Z,65.61
2018-04-01T08:45:06.768Z,64.38
2018-04-01T08:47:34.219Z,63.11
2018-04-01T08:50:01.688Z,62.15
2018-04-01T08:52:29.144Z,63.24
2018-04-01T08:54:56.603Z,62.53
2018-04-01T08:57:24.068Z,62.46
2018-04-01T08:59:51.538Z,62.36
2018-04-01T09:02:18.993Z,62.60
2018-04-01T09:04:46.445Z,62.18
2018-04-01T09:07:13.908Z,61.80
2018-04-01T09:09:41.368Z,61.79
2018-04-01T09:12:08.824Z,59.90
2018-04-01T09:14:36.275Z,61.10
2018-04-01T09:17:03.747Z,61.26
2018-04-01T09:19:31.195Z,62.18
2018-04-01T09:21:58.655Z,60.51
2018-04-01T09:24:26.167Z,60.31
2018-04-01T09:26:53.580Z,59.95
2018-04-01T09:29:21.039Z,60.02
2018-04-01T09:31:48.495Z,60.21
2018-04-01T09:34:15.963Z,59.85
2018-04-01T09:36:43.423Z,60.74
2018-04-01T09:39:10.895Z,59.76
2018-04-01T09:41:38.351Z,59.35
2018-04-01T09:44:05.875Z,59.68
2018-04-01T09:46:33.283Z,58.42
2018-04-01T09:49:00.744Z,58.95
2018-04-01T09:51:28.199Z,58.33
2018-04-01T09:53:55.663Z,57.50
2018-04-01T09:56:23.119Z,57.37
2018-04-01T09:58:50.591Z,57.02
2018-04-01T10:01:18.595Z,56.57
2018-04-01T10:03:46.598Z,56.75
2018-04-01T10:06:14.604Z,57.17
2018-04-01T10:08:42.937Z,56.17
2018-04-01T10:11:11.183Z,56.50
2018-04-01T10:13:39.456Z,56.83
2018-04-01T10:16:07.739Z,56.25
2018-04-01T10:18:36.027Z,56.23
2018-04-01T10:21:04.319Z,56.10
2018-04-01T10:23:32.609Z,55.64
2018-04-01T10:26:00.899Z,56.37
2018-04-01T10:28:29.184Z,56.36
2018-04-01T10:30:57.567Z,56.66
2018-04-01T10:33:25.843Z,56.52
2018-04-01T10:35:54.139Z,56.45
2018-04-01T10:38:22.427Z,56.27
2018-04-01T10:40:50.720Z,56.30
2018-04-01T10:43:19.064Z,56.14
2018-04-01T10:45:47.284Z,56.66
2018-04-01T10:48:15.654Z,57.29
2018-04-01T10:50:43.902Z,56.54
2018-04-01T10:53:12.199Z,57.00
2018-04-01T10:55:40.864Z,57.11
2018-04-01T10:58:08.351Z,57.09
2018-04-01T11:00:35.806Z,56.55
2018-04-01T11:03:03.262Z,57.54
2018-04-01T11:05:30.720Z,56.58
2018-04-01T11:07:58.192Z,56.56
2018-04-01T11:10:25.663Z,56.60
2018-04-01T11:12:53.126Z,56.45
2018-04-01T11:15:20.587Z,56.48
2018-04-01T11:17:48.059Z,56.38
2018-04-01T11:20:15.516Z,56.82
2018-04-01T11:22:42.988Z,57.37
2018-04-01T11:25:10.451Z,56.31
2018-04-01T11:27:37.908Z,55.56
2018-04-01T11:30:05.383Z,55.15
2018-04-01T11:32:32.840Z,55.56
2018-04-01T11:35:00.323Z,55.76
2018-04-01T11:37:27.775Z,55.87
2018-04-01T11:39:55.243Z,55.07
2018-04-01T11:42:22.720Z,54.78
2018-04-01T11:44:50.195Z,54.49
2018-04-01T11:47:17.656Z,53.58
2018-04-01T11:49:45.123Z,55.03
2018-04-01T11:52:12.607Z,54.15
2018-04-01T11:54:40.076Z,54.74
2018-04-01T11:57:07.537Z,54.80
2018-04-01T11:59:34.996Z,54.41
2018-04-01T12:02:02.515Z,55.57
2018-04-01T12:04:29.964Z,54.47
2018-04-01T12:06:57.436Z,54.72
2018-04-01T12:09:24.891Z,54.19
2018-04-01T12:11:52.357Z,54.92
2018-04-01T12:14:19.819Z,54.63
2018-04-01T12:16:47.280Z,54.22
2018-04-01T12:19:14.731Z,54.09
2018-04-01T12:21:42.297Z,54.88
2018-04-01T12:24:09.749Z,54.87
2018-04-01T12:26:37.215Z,57.97
2018-04-01T12:29:04.678Z,62.52
2018-04-01T12:31:32.168Z,65.06
2018-04-01T12:33:59.623Z,65.80
2018-04-01T12:36:27.084Z,66.22
2018-04-01T12:38:54.568Z,67.82
2018-04-01T12:41:22.000Z,68.32
2018-04-01T12:43:49.467Z,68.20
2018-04-01T12:46:16.915Z,68.18
2018-04-01T12:48:44.380Z,67.39
2018-04-01T12:51:11.844Z,67.41
2018-04-01T12:53:39.312Z,68.02
2018-04-01T12:56:06.764Z,68.26
2018-04-01T12:58:34.232Z,69.06
2018-04-01T13:01:01.696Z,68.17
2018-04-01T13:03:29.167Z,69.04
2018-04-01T13:05:56.619Z,68.56
2018-04-01T13:08:24.103Z,70.11
2018-04-01T13:10:51.572Z,70.72
2018-04-01T13:13:19.032Z,70.20
2018-04-01T13:15:46.495Z,69.75
2018-04-01T13:18:13.956Z,69.25
2018-04-01T13:20:41.424Z,69.37
2018-04-01T13:23:08.885Z,68.78
2018-04-01T13:25:36.357Z,69.12
2018-04-01T13:28:03.816Z,68.82
2018-04-01T13:30:31.280Z,68.29
2018-04-01T13:32:58.731Z,68.98
2018-04-01T13:35:26.200Z,68.18
2018-04-01T13:37:53.659Z,67.44
2018-04-01T13:40:21.127Z,66.82
2018-04-01T13:42:48.593Z,67.44
2018-04-01T13:45:16.072Z,66.28
2018-04-01T13:47:43.535Z,65.64
2018-04-01T13:50:11.012Z,64.99
2018-04-01T13:52:38.468Z,65.28
2018-04-01T13:55:05.939Z,63.62
2018-04-01T13:57:33.404Z,63.75
2018-04-01T14:00:00.867Z,63.96
2018-04-01T14:02:28.326Z,64.84
2018-04-01T14:04:55.791Z,64.41
2018-04-01T14:07:23.264Z,64.12
2018-04-01T14:09:50.731Z,63.81
2018-04-01T14:12:18.201Z,65.78
2018-04-01T14:14:45.659Z,64.18
2018-04-01T14:17:13.129Z,64.14
2018-04-01T14:19:40.596Z,65.62
2018-04-01T14:22:08.064Z,64.55
2018-04-01T14:24:35.521Z,64.91
2018-04-01T14:27:02.996Z,64.06
2018-04-01T14:29:31.173Z,63.99
2018-04-01T14:31:58.632Z,63.11
2018-04-01T14:34:26.107Z,60.50
2018-04-01T14:36:53.568Z,58.38
2018-04-01T14:39:21.064Z,58.47
2018-04-01T14:41:48.527Z,58.65
2018-04-01T14:44:16.001Z,58.30
2018-04-01T14:46:43.469Z,59.05
2018-04-01T14:49:10.932Z,60.37
2018-04-01T14:51:38.388Z,58.22
2018-04-01T14:54:05.854Z,57.66
2018-04-01T14:56:33.316Z,57.43
2018-04-01T14:59:01.043Z,55.76
2018-04-01T15:01:28.499Z,56.13
2018-04-01T15:03:55.967Z,56.26
2018-04-01T15:06:23.427Z,57.44
2018-04-01T15:08:50.886Z,56.57
2018-04-01T15:11:18.356Z,57.78
2018-04-01T15:13:45.819Z,56.83
2018-04-01T15:16:13.287Z,58.35
2018-04-01T15:18:40.744Z,57.95
2018-04-01T15:21:09.962Z,56.74
2018-04-01T15:23:37.383Z,57.29
2018-04-01T15:26:04.851Z,56.80
2018-04-01T15:28:32.313Z,56.36
2018-04-01T15:30:59.767Z,55.59
2018-04-01T15:33:27.231Z,57.10
2018-04-01T15:35:54.702Z,56.61
2018-04-01T15:38:22.183Z,57.00
2018-04-01T15:40:49.658Z,57.57
2018-04-01T15:43:17.099Z,58.27
2018-04-01T15:45:44.555Z,57.93
2018-04-01T15:48:12.024Z,58.76
2018-04-01T15:50:40.375Z,58.88
2018-04-01T15:53:07.847Z,59.25
2018-04-01T15:55:35.336Z,60.20
2018-04-01T15:58:02.799Z,60.86
2018-04-01T16:00:30.267Z,61.64
2018-04-01T16:02:57.723Z,61.92
2018-04-01T16:05:25.187Z,61.94
2018-04-01T16:07:52.639Z,61.39
2018-04-01T16:10:20.107Z,61.69
2018-04-01T16:12:47.559Z,62.79
2018-04-01T16:15:15.036Z,62.54
2018-04-01T16:17:42.479Z,62.83
2018-04-01T16:20:10.300Z,62.68
2018-04-01T16:22:37.759Z,62.88
2018-04-01T16:25:05.221Z,62.23
2018-04-01T16:27:32.684Z,62.77
2018-04-01T16:30:00.143Z,62.03
2018-04-01T16:32:27.635Z,62.15
2018-04-01T16:34:55.090Z,61.84
2018-04-01T16:37:22.549Z,62.12
2018-04-01T16:39:50.003Z,61.59
2018-04-01T16:42:17.463Z,61.32
2018-04-01T16:44:44.920Z,61.61
2018-04-01T16:47:12.387Z,60.94
2018-04-01T16:49:39.840Z,61.71
2018-04-01T16:52:07.308Z,62.21
2018-04-01T16:54:34.764Z,60.95
2018-04-01T16:57:02.223Z,60.90
2018-04-01T16:59:29.694Z,62.17
2018-04-01T17:01:57.164Z,61.64
2018-04-01T17:04:24.641Z,62.29
2018-04-01T17:06:52.091Z,61.73
2018-04-01T17:09:19.598Z,61.27
2018-04-01T17:11:47.039Z,61.67
2018-04-01T17:14:14.499Z,61.33
2018-04-01T17:16:41.953Z,61.81
2018-04-01T17:19:09.420Z,60.64
2018-04-01T17:21:36.867Z,60.59
2018-04-01T17:24:04.328Z,60.99
2018-04-01T17:26:31.793Z,61.76
2018-04-01T17:28:59.244Z,62.87
2018-04-01T17:31:26.716Z,62.06
2018-04-01T17:33:54.171Z,62.26
2018-04-01T17:36:21.648Z,63.00
2018-04-01T17:38:49.111Z,64.07
2018-04-01T17:41:16.605Z,66.44
2018-04-01T17:43:44.035Z,66.64
2018-04-01T17:46:11.835Z,67.43
2018-04-01T17:48:39.309Z,68.31
2018-04-01T17:51:06.761Z,68.11
2018-04-01T17:53:34.225Z,68.10
2018-04-01T17:56:01.696Z,69.08
2018-04-01T17:58:29.155Z,68.89
2018-04-01T18:00:56.603Z,69.69
2018-04-01T18:03:24.112Z,68.66
2018-04-01T18:05:51.560Z,68.49
2018-04-01T18:08:19.023Z,67.96
2018-04-01T18:10:46.475Z,67.40
2018-04-01T18:13:13.953Z,67.78
2018-04-01T18:15:41.398Z,68.13
2018-04-01T18:18:12.483Z,68.06
2018-04-01T18:20:39.943Z,67.31
2018-04-01T18:23:07.391Z,68.64
2018-04-01T18:25:35.008Z,67.73
2018-04-01T18:28:02.481Z,67.53
2018-04-01T18:30:30.085Z,67.29
2018-04-01T18:32:57.527Z,67.58
2018-04-01T18:35:24.996Z,66.60
2018-04-01T18:37:52.475Z,66.83
2018-04-01T18:40:19.935Z,66.20
2018-04-01T18:42:47.395Z,66.24
2018-04-01T18:45:14.872Z,66.07
2018-04-01T18:47:42.407Z,66.16
2018-04-01T18:50:09.831Z,65.67
2018-04-01T18:52:37.291Z,65.65
2018-04-01T18:55:04.760Z,66.26
2018-04-01T18:57:32.223Z,65.67
2018-04-01T18:59:59.690Z,65.37
2018-04-01T19:02:27.154Z,65.86
2018-04-01T19:04:54.613Z,65.88
2018-04-01T19:07:22.075Z,66.23
2018-04-01T19:09:49.605Z,65.62
2018-04-01T19:12:17.019Z,65.50
2018-04-01T19:14:44.499Z,65.47
2018-04-01T19:17:12.496Z,65.04
2018-04-01T19:19:40.787Z,65.13
2018-04-01T19:22:09.073Z,65.28
2018-04-01T19:24:37.372Z,66.43
2018-04-01T19:27:05.648Z,66.28
2018-04-01T19:29:33.940Z,66.18
2018-04-01T19:32:02.221Z,66.55
2018-04-01T19:34:30.520Z,65.53
2018-04-01T19:36:58.795Z,65.04
2018-04-01T19:39:27.076Z,64.16
2018-04-01T19:41:55.391Z,64.51
2018-04-01T19:44:23.663Z,64.41
2018-04-01T19:46:51.947Z,65.53
2018-04-01T19:49:20.260Z,65.79
2018-04-01T19:51:48.532Z,65.81
2018-04-01T19:54:16.811Z,66.29
2018-04-01T19:56:45.091Z,66.66
2018-04-01T19:59:13.370Z,66.83
2018-04-01T20:01:41.674Z,67.00
2018-04-01T20:04:10.681Z,66.21
2018-04-01T20:06:38.951Z,66.81
2018-04-01T20:09:07.240Z,66.80
2018-04-01T20:11:35.525Z,66.07
2018-04-01T20:14:03.836Z,65.48
2018-04-01T20:16:32.124Z,65.07
2018-04-01T20:19:00.428Z,65.51
2018-04-01T20:21:28.685Z,65.06
2018-04-01T20:23:56.971Z,64.05
2018-04-01T20:26:25.252Z,64.32
2018-04-01T20:28:53.539Z,63.43
2018-04-01T20:31:21.863Z,62.38
2018-04-01T20:33:50.218Z,62.23
2018-04-01T20:36:18.491Z,62.23
2018-04-01T20:38:46.763Z,61.75
2018-04-01T20:41:16.107Z,61.88
2018-04-01T20:43:44.339Z,62.04
2018-04-01T20:46:12.623Z,62.08
2018-04-01T20:48:40.900Z,61.99
2018-04-01T20:51:09.187Z,61.38
2018-04-01T20:53:37.480Z,61.50
2018-04-01T20:56:05.769Z,61.19
2018-04-01T20:58:34.050Z,61.83
2018-04-01T21:01:02.327Z,61.56
2018-04-01T21:03:30.604Z,61.93
2018-04-01T21:05:58.876Z,61.50
2018-04-01T21:08:27.156Z,61.05
2018-04-01T21:10:55.432Z,62.17
2018-04-01T21:13:23.715Z,61.38
2018-04-01T21:15:52.008Z,62.75
2018-04-01T21:18:20.288Z,61.95
2018-04-01T21:20:48.576Z,61.38
2018-04-01T21:23:16.875Z,61.86
2018-04-01T21:25:45.151Z,60.86
2018-04-01T21:28:13.437Z,60.67
2018-04-01T21:30:41.712Z,62.13
2018-04-01T21:33:10.023Z,61.26
2018-04-01T21:35:38.308Z,61.24
2018-04-01T21:38:06.632Z,60.90
2018-04-01T21:40:34.907Z,61.03
2018-04-01T21:43:03.179Z,60.69
2018-04-01T21:45:31.467Z,61.46
2018-04-01T21:47:59.744Z,61.67
2018-04-01T21:50:28.030Z,61.86
2018-04-01T21:52:56.303Z,61.06
2018-04-01T21:55:24.599Z,61.68
2018-04-01T21:57:52.879Z,60.35
2018-04-01T22:00:21.181Z,60.21
2018-04-01T22:02:49.476Z,60.80
2018-04-01T22:05:17.765Z,60.73
2018-04-01T22:07:46.047Z,60.43
2018-04-01T22:10:14.335Z,60.81
2018-04-01T22:12:42.612Z,60.20
2018-04-01T22:15:10.896Z,61.23
2018-04-01T22:17:39.185Z,60.62
2018-04-01T22:20:07.462Z,60.97
2018-04-01T22:22:47.642Z,60.40
2018-04-01T22:25:15.912Z,61.78
2018-04-01T22:27:44.195Z,61.45
2018-04-01T22:30:12.472Z,60.28
2018-04-01T22:32:40.764Z,62.04
2018-04-01T22:35:09.043Z,62.24
2018-04-01T22:37:37.336Z,60.87
2018-04-01T22:40:05.613Z,61.07
2018-04-01T22:42:33.904Z,61.86
2018-04-01T22:45:02.180Z,62.17
2018-04-01T22:47:30.475Z,62.23
2018-04-01T22:49:58.775Z,62.66
2018-04-01T22:52:27.056Z,63.25
2018-04-01T22:54:55.338Z,62.16
2018-04-01T22:57:23.608Z,62.32
2018-04-01T22:59:51.887Z,62.66
2018-04-01T23:02:20.167Z,63.37
2018-04-01T23:04:48.451Z,63.07
2018-04-01T23:07:16.723Z,62.94
2018-04-01T23:09:45.003Z,62.45
2018-04-01T23:12:13.272Z,62.08
2018-04-01T23:14:41.581Z,61.89
2018-04-01T23:17:09.900Z,62.67
2018-04-01T23:19:38.179Z,62.86
2018-04-01T23:22:06.463Z,62.99
2018-04-01T23:24:34.747Z,63.15
2018-04-01T23:27:03.023Z,63.41
2018-04-01T23:29:31.306Z,63.15
2018-04-01T23:31:59.583Z,63.13
2018-04-01T23:34:27.856Z,64.71
2018-04-01T23:36:56.144Z,64.30
2018-04-01T23:39:24.415Z,64.56
2018-04-01T23:41:52.700Z,63.63
2018-04-01T23:44:20.972Z,63.65
2018-04-01T23:46:49.259Z,64.06
2018-04-01T23:49:17.536Z,63.73
2018-04-01T23:51:45.819Z,64.61
2018-04-01T23:54:14.085Z,64.97
2018-04-01T23:56:42.684Z,65.15
2018-04-01T23:59:10.986Z,64.04
